Latest Weather Observations for Mandurah

IDW60801

Issued at 1:02 pm WST Sunday 21 December 2014 (issued every 30 minutes, with the page automatically refreshed every 10 minutes)

About weather observations | Map of weather stations | Latest weather observations for WA | Other Formats
Station Details ID: 009977 Name: MANDURAH Lat: -32.52 Lon: 115.71 Height: 3.0 m
Data from the previous 72 hours. | See also: Recent months at Mandurah
Date/Time
WST
Temp
°C
App
Temp
°C
Dew
Point
Rel
Hum
%
Delta-T
°C
Wind Press
QNH
hPa
Press
MSL
hPa
Rain
since 9 am
mm
Dir
 
Spd
km/h
Gust
km/h
Spd
kts
Gust
kts
21/01:00pm 27.1 25.3 10.8 36 9.2 S 11 24 6 13 1016.3 1016.3 0.0
21/12:30pm 26.7 24.1 10.8 37 8.9 SSE 15 24 8 13 1016.6 1016.6 0.0
21/12:00pm 26.2 23.8 11.5 40 8.4 SSE 15 30 8 16 1016.7 1016.7 0.0
21/11:30am 25.1 22.7 11.3 42 7.8 SSE 15 28 8 15 1017.1 1017.1 0.0
21/11:00am 24.9 23.0 11.8 44 7.4 SSE 13 24 7 13 1017.4 1017.4 0.0
21/10:30am 23.6 20.9 11.6 47 6.8 S 17 26 9 14 1017.6 1017.6 0.0
21/10:00am 23.3 20.3 10.7 45 7.0 SE 17 33 9 18 1017.6 1017.6 0.0
21/09:30am 22.4 19.3 10.2 46 6.7 SE 17 24 9 13 1017.8 1017.8 0.0
21/09:00am 21.0 18.2 11.3 54 5.3 SSE 17 28 9 15 1017.9 1017.9 0.0
21/08:30am 20.9 18.1 11.3 54 5.3 SE 17 28 9 15 1018.1 1018.1 0.0
21/08:00am 19.7 16.6 11.7 60 4.4 SSE 19 28 10 15 1018.0 1018.0 0.0
21/07:30am 19.0 14.5 11.3 61 4.2 SE 26 37 14 20 1017.8 1017.8 0.0
21/07:00am 18.6 15.0 11.7 64 3.8 SE 22 33 12 18 1017.8 1017.8 0.0
21/06:30am 18.1 15.0 11.7 66 3.5 SSE 19 32 10 17 1017.6 1017.6 0.0
21/06:00am 17.4 14.3 11.7 69 3.1 SE 19 28 10 15 1017.4 1017.4 0.0
21/05:30am 17.1 14.5 12.0 72 2.8 SE 17 20 9 11 1017.2 1017.2 0.0
21/05:00am 16.7 12.9 11.2 70 3.0 SE 22 32 12 17 1016.9 1016.9 0.0
21/04:30am 16.9 13.9 11.8 72 2.8 SSE 19 28 10 15 1016.4 1016.4 0.0
21/04:00am 17.2 13.9 11.7 70 3.0 SSE 20 33 11 18 1016.0 1016.0 0.0
21/03:30am 17.3 14.6 11.6 69 3.1 SSE 17 24 9 13 1015.9 1015.9 0.0
21/03:00am 17.4 14.1 11.0 66 3.4 SE 19 26 10 14 1015.9 1015.9 0.0
21/02:30am 17.7 15.3 11.5 67 3.4 SSE 15 24 8 13 1015.9 1015.9 0.0
21/02:00am 18.2 15.8 11.3 64 3.7 SSE 15 24 8 13 1015.9 1015.9 0.0
21/01:30am 18.6 15.8 11.2 62 4.0 SSE 17 26 9 14 1016.0 1016.0 0.0
21/01:00am 18.5 15.9 10.8 61 4.2 SE 15 20 8 11 1016.0 1016.0 0.0
21/12:30am 18.6 16.6 10.2 58 4.5 SE 11 20 6 11 1016.0 1016.0 0.0
21/12:00am 19.0 15.9 10.3 57 4.7 SE 17 26 9 14 1015.8 1015.8 0.0
 
Date/Time
WST
Temp
°C
App
Temp
°C
Dew
Point
Rel
Hum
%
Delta-T
°C
Wind Press
QNH
hPa
Press
MSL
hPa
Rain
since 9 am
mm
Dir
 
Spd
km/h
Gust
km/h
Spd
kts
Gust
kts
20/11:30pm 19.6 14.6 10.9 57 4.7 SE 28 41 15 22 1015.8 1015.8 0.0
20/11:00pm 20.2 16.2 10.6 54 5.2 SE 22 35 12 19 1015.6 1015.6 0.0
20/10:30pm 20.7 16.4 10.8 53 5.4 SSE 24 37 13 20 1015.3 1015.3 0.0
20/10:00pm 21.6 17.3 10.7 50 6.0 SSE 24 37 13 20 1014.8 1014.8 0.0
20/09:30pm 22.2 18.2 10.4 47 6.5 SSE 22 35 12 19 1014.5 1014.5 0.0
20/09:00pm 22.9 19.2 10.3 45 6.9 SSE 20 33 11 18 1014.1 1014.1 0.0
20/08:30pm 23.7 19.6 10.0 42 7.5 SSE 22 37 12 20 1013.3 1013.3 0.0
20/08:00pm 24.5 19.8 9.3 38 8.3 SE 24 37 13 20 1012.8 1012.8 0.0
20/07:30pm 25.2 20.7 9.9 38 8.4 SSE 24 37 13 20 1012.1 1012.1 0.0
20/07:00pm 26.1 21.9 9.9 36 9.0 SSE 22 37 12 20 1011.2 1011.2 0.0
20/06:30pm 27.1 23.6 10.8 36 9.2 SSE 20 35 11 19 1010.6 1010.6 0.0
20/06:00pm 27.1 23.8 10.8 36 9.2 S 19 35 10 19 1009.8 1009.8 0.0
20/05:30pm 25.7 22.2 14.5 50 6.7 SSW 26 39 14 21 1009.4 1009.4 0.0
20/05:00pm 25.6 21.2 14.1 49 6.8 SSW 30 43 16 23 1009.2 1009.2 0.0
20/04:30pm 26.3 21.4 13.8 46 7.4 SSW 32 43 17 23 1008.8 1008.8 0.0
20/04:00pm 26.0 21.5 13.8 47 7.2 SSW 30 54 16 29 1008.6 1008.6 0.0
20/03:30pm 26.3 21.3 13.4 45 7.6 SSW 32 52 17 28 1008.5 1008.5 0.0
20/03:00pm 26.3 21.1 13.4 45 7.6 SSW 33 48 18 26 1008.5 1008.5 0.0
20/02:32pm 26.6 20.7 13.7 45 7.6 SSW 37 57 20 31 1008.4 1008.4 0.0
20/02:30pm 26.3 20.1 13.8 46 7.4 SSW 39 56 21 30 1008.4 1008.4 0.0
20/02:00pm 26.2 21.4 14.0 47 7.2 SSW 32 52 17 28 1008.5 1008.5 0.0
20/01:37pm 26.2 21.4 14.6 48 6.9 SSW 33 52 18 28 1008.5 1008.5 0.0
20/01:30pm 26.5 21.8 14.9 49 7.0 SSW 33 46 18 25 1008.6 1008.6 0.0
20/01:00pm 25.3 20.9 15.6 55 5.9 SSW 33 52 18 28 1008.6 1008.6 0.0
20/12:59pm 25.5 21.3 15.8 55 5.9 SSW 32 52 17 28 1008.6 1008.6 0.0
20/12:30pm 25.5 21.8 16.1 56 5.7 SSW 30 44 16 24 1008.6 1008.6 0.0
20/12:02pm 25.4 21.8 16.3 57 5.6 SSW 30 50 16 27 1008.7 1008.7 0.0
20/12:00pm 25.0 21.3 15.9 57 5.5 SSW 30 44 16 24 1008.7 1008.7 0.0
20/11:30am 24.7 21.0 15.9 58 5.3 SSW 30 46 16 25 1008.8 1008.8 0.0
20/11:00am 24.4 20.7 15.9 59 5.2 SSW 30 43 16 23 1008.7 1008.7 0.0
20/10:30am 23.9 20.5 15.9 61 4.8 SSW 28 46 15 25 1008.7 1008.7 0.0
20/10:00am 23.6 19.7 15.6 61 4.8 SSW 30 41 16 22 1008.4 1008.4 0.0
20/09:30am 23.1 19.5 15.2 61 4.7 SSW 28 41 15 22 1008.2 1008.2 0.0
20/09:00am 23.3 20.5 15.4 61 4.7 SSW 24 35 13 19 1008.1 1008.1 0.0
20/08:30am 23.8 22.2 15.0 57 5.3 SSW 17 28 9 15 1007.9 1007.9 0.0
20/08:00am 22.8 20.9 15.1 62 4.6 SSW 19 30 10 16 1007.8 1007.8 0.0
20/07:30am 21.9 20.0 15.7 68 3.7 SSW 20 32 11 17 1007.7 1007.7 0.0
20/07:00am 21.4 20.0 16.6 74 2.9 S 19 28 10 15 1007.6 1007.6 0.0
20/06:30am 21.3 20.0 16.9 76 2.7 SSW 19 30 10 16 1007.4 1007.4 0.0
20/06:00am 21.6 20.3 16.8 74 2.9 SSW 19 28 10 15 1007.1 1007.1 0.0
20/05:30am 22.0 21.7 16.5 71 3.3 SSW 13 19 7 10 1006.7 1006.7 0.0
20/05:00am 22.7 22.1 14.5 60 4.8 SSW 11 15 6 8 1006.4 1006.4 0.0
20/04:30am 22.6 23.4 14.7 61 4.7 S 4 6 2 3 1006.0 1006.0 0.0
20/04:00am 23.7 23.8 13.8 53 5.8 SSE 6 7 3 4 1005.7 1005.7 0.0
20/03:30am 23.0 23.3 14.6 59 5.0 SSW 6 7 3 4 1005.8 1005.8 0.0
20/03:00am 23.5 23.5 15.3 60 4.9 SSE 9 13 5 7 1005.8 1005.8 0.0
20/02:30am 23.6 24.2 15.4 60 4.9 SSW 6 9 3 5 1005.7 1005.7 0.0
20/02:00am 23.9 23.5 15.1 58 5.3 SSE 11 15 6 8 1006.0 1006.0 0.0
20/01:30am 24.0 23.2 15.2 58 5.3 SSE 13 19 7 10 1006.3 1006.3 0.0
20/01:00am 24.1 23.4 15.3 58 5.3 SSE 13 19 7 10 1006.6 1006.6 0.0
20/12:30am 23.8 22.8 16.6 64 4.4 S 17 26 9 14 1006.9 1006.9 0.0
20/12:00am 24.7 24.2 15.9 58 5.4 S 13 20 7 11 1007.0 1007.0 0.0
 
Date/Time
WST
Temp
°C
App
Temp
°C
Dew
Point
Rel
Hum
%
Delta-T
°C
Wind Press
QNH
hPa
Press
MSL
hPa
Rain
since 9 am
mm
Dir
 
Spd
km/h
Gust
km/h
Spd
kts
Gust
kts
19/11:30pm 25.0 24.5 15.9 57 5.5 SSE 13 19 7 10 1007.5 1007.5 0.0
19/11:00pm 24.8 23.6 16.2 58 5.3 S 17 28 9 15 1008.1 1008.1 0.0
19/10:30pm 24.2 22.6 16.5 62 4.7 S 20 32 11 17 1007.6 1007.6 0.0
19/10:00pm 24.6 22.5 16.1 59 5.2 SSW 22 33 12 18 1008.0 1008.0 0.0
19/09:30pm 25.6 23.5 15.3 53 6.2 S 20 32 11 17 1007.9 1007.9 0.0
19/09:00pm 25.9 23.7 15.0 51 6.6 S 20 33 11 18 1007.7 1007.7 0.0
19/08:30pm 26.1 23.2 15.2 51 6.6 S 24 41 13 22 1007.4 1007.4 0.0
19/08:00pm 26.6 24.0 15.0 49 7.0 S 22 35 12 19 1007.0 1007.0 0.0
19/07:30pm 27.5 24.4 14.5 45 7.8 S 24 35 13 19 1006.7 1006.7 0.0
19/07:00pm 27.5 25.3 14.8 45 7.7 S 20 30 11 16 1006.6 1006.6 0.0
19/06:30pm 28.3 24.8 12.2 37 9.4 SSW 22 33 12 18 1006.5 1006.5 0.0
19/06:00pm 29.7 24.9 10.3 30 11.0 SSW 26 39 14 21 1006.3 1006.3 0.0
19/05:30pm 30.7 24.9 7.8 24 12.5 SSW 28 43 15 23 1006.3 1006.3 0.0
19/05:00pm 31.6 26.4 7.3 22 13.3 SSW 24 39 13 21 1006.3 1006.3 0.0
19/04:30pm 32.1 26.6 7.7 22 13.4 SSW 26 35 14 19 1006.6 1006.6 0.0
19/04:00pm 32.9 27.0 7.7 21 14.0 SSW 28 37 15 20 1007.1 1007.1 0.0
19/03:30pm 33.8 29.8 9.1 22 14.0 SSW 20 32 11 17 1007.5 1007.5 0.0
19/03:00pm 33.6 29.0 9.6 23 13.7 SSW 24 35 13 19 1008.0 1008.0 0.0
19/02:30pm 34.2 29.5 10.7 24 13.7 SSW 26 35 14 19 1008.4 1008.4 0.0
19/02:00pm 34.4 30.7 11.5 25 13.5 SSW 22 32 12 17 1008.9 1008.9 0.0
19/01:30pm 34.8 31.6 11.2 24 13.9 SSW 19 28 10 15 1009.2 1009.2 0.0
19/01:00pm 35.5 32.1 10.5 22 14.6 SSW 19 28 10 15 1009.6 1009.6 0.0
19/12:30pm 36.0 32.3 6.2 16 16.3 S 15 20 8 11 1010.0 1010.0 0.0
19/12:00pm 35.4 32.3 9.0 20 15.1 S 15 20 8 11 1010.3 1010.3 0.0
19/11:30am 34.9 32.7 9.3 21 14.6 S 11 19 6 10 1010.7 1010.7 0.0
19/11:00am 34.7 33.8 9.2 21 14.6 SSE 4 7 2 4 1011.4 1011.4 0.0
19/10:30am 34.8 33.3 9.3 21 14.6 E 7 13 4 7 1011.8 1011.8 0.0
19/10:00am 33.3 31.5 9.4 23 13.6 ENE 9 15 5 8 1012.3 1012.3 0.0
19/09:30am 31.6 29.9 9.8 26 12.4 ENE 9 17 5 9 1012.8 1012.8 0.0
19/09:00am 29.6 26.8 8.6 27 11.6 ENE 13 19 7 10 1013.2 1013.2 0.0
19/08:30am 27.6 24.9 9.0 31 10.2 ENE 13 20 7 11 1013.5 1013.5 0.0
19/08:00am 25.6 23.5 9.8 37 8.7 ENE 11 20 6 11 1013.8 1013.8 0.0
19/07:30am 23.1 21.4 9.8 43 7.2 E 9 15 5 8 1014.0 1014.0 0.0
19/07:00am 21.6 19.0 9.5 46 6.5 E 13 20 7 11 1014.0 1014.0 0.0
19/06:30am 20.5 18.4 9.7 50 5.8 ESE 11 15 6 8 1014.0 1014.0 0.0
19/06:00am 19.3 17.9 9.5 53 5.2 ESE 7 11 4 6 1014.0 1014.0 0.0
19/05:30am 18.5 17.4 10.1 58 4.5 SE 6 9 3 5 1013.8 1013.8 0.0
19/05:00am 18.7 17.6 9.8 56 4.7 SE 6 9 3 5 1013.7 1013.7 0.0
19/04:30am 18.8 18.4 9.8 56 4.8 SE 2 6 1 3 1013.5 1013.5 0.0
19/04:00am 19.2 18.1 9.9 55 5.0 SE 6 7 3 4 1013.4 1013.4 0.0
19/03:30am 19.1 17.9 10.4 57 4.7 SE 7 11 4 6 1013.3 1013.3 0.0
19/03:00am 19.4 17.9 10.7 57 4.7 SE 9 13 5 7 1013.3 1013.3 0.0
19/02:30am 19.1 17.8 11.4 61 4.2 SE 9 13 5 7 1013.3 1013.3 0.0
19/02:00am 18.8 18.0 14.1 74 2.7 SSE 11 15 6 8 1013.4 1013.4 0.0
19/01:30am 18.8 18.5 14.3 75 2.6 SSE 9 13 5 7 1013.5 1013.5 0.0
19/01:00am 19.2 18.0 14.0 72 3.0 SSE 13 19 7 10 1013.7 1013.7 0.0
19/12:30am 19.6 18.2 14.6 73 2.9 SSE 15 24 8 13 1013.8 1013.8 0.0
19/12:00am 19.8 18.2 15.0 74 2.8 SSE 17 24 9 13 1013.9 1013.9 0.0
 
Date/Time
WST
Temp
°C
App
Temp
°C
Dew
Point
Rel
Hum
%
Delta-T
°C
Wind Press
QNH
hPa
Press
MSL
hPa
Rain
since 9 am
mm
Dir
 
Spd
km/h
Gust
km/h
Spd
kts
Gust
kts
18/11:30pm 20.2 19.5 15.4 74 2.8 S 13 19 7 10 1014.3 1014.3 0.0
18/11:00pm 20.4 19.3 15.4 73 3.0 S 15 19 8 10 1014.5 1014.5 0.0
18/10:30pm 20.5 19.8 15.5 73 3.0 S 13 19 7 10 1014.9 1014.9 0.0
18/10:00pm 20.8 19.8 15.6 72 3.1 S 15 22 8 12 1015.1 1015.1 0.0
18/09:30pm 20.9 19.4 15.4 71 3.3 S 17 28 9 15 1015.0 1015.0 0.0
18/09:00pm 20.8 20.0 16.2 75 2.8 S 15 24 8 13 1015.0 1015.0 0.0
18/08:30pm 20.7 20.4 16.5 77 2.5 SSW 13 22 7 12 1015.0 1015.0 0.0
18/08:00pm 20.9 19.7 16.1 74 2.9 S 17 24 9 13 1014.9 1014.9 0.0
18/07:30pm 21.3 20.4 14.9 67 3.8 S 13 20 7 11 1014.9 1014.9 0.0
18/07:00pm 21.6 19.5 13.5 60 4.7 SSW 17 24 9 13 1014.7 1014.7 0.0
18/06:30pm 22.0 20.0 13.9 60 4.7 SSW 17 30 9 16 1014.5 1014.5 0.0
18/06:00pm 22.4 20.0 14.3 60 4.7 SSW 20 30 11 16 1014.3 1014.3 0.0
18/05:30pm 22.8 20.1 13.6 56 5.3 S 20 32 11 17 1014.2 1014.2 0.0
18/05:00pm 23.9 21.7 13.2 51 6.2 SSW 17 28 9 15 1014.2 1014.2 0.0
18/04:30pm 23.3 20.3 13.8 55 5.5 SW 22 33 12 18 1014.3 1014.3 0.0
18/04:00pm 23.2 19.8 13.7 55 5.5 SW 24 33 13 18 1014.4 1014.4 0.0
18/03:30pm 23.1 18.7 13.0 53 5.8 SW 28 39 15 21 1014.7 1014.7 0.0
18/03:00pm 23.5 19.4 12.8 51 6.1 SW 26 37 14 20 1014.8 1014.8 0.0
18/02:30pm 23.1 18.8 13.3 54 5.7 WSW 28 37 15 20 1015.0 1015.0 0.0
18/02:00pm 22.7 18.2 12.6 53 5.8 WSW 28 37 15 20 1015.3 1015.3 0.0
18/01:30pm 22.6 18.2 11.7 50 6.1 SW 26 35 14 19 1015.5 1015.5 0.0

Other Formats:

Comma delimited format used in spreadsheet applications
http://www.bom.gov.au/fwo/IDW60801/IDW60801.94605.axf

JavaScript Object Notation format (JSON) in row-major order
http://www.bom.gov.au/fwo/IDW60801/IDW60801.94605.json